Terminal Aerodrome Forecast
Issued by NWS Indianapolis, IN

Home | Current Version | Previous Version | Text Only | Print | Product List | Glossary On
Versions: 1 2 3 4 5 6 7 8 9 10 11 12 13 14 15 16 17 18 19 20 21 22 23 24 25 26 27 28 29 30
000
FTUS43 KIND 181341 AAC
TAFIND
TAF AMD
KIND 181341Z 1814/1918 29011KT P6SM OVC008
      TEMPO 1814/1815 OVC010
     FM181500 28009KT P6SM OVC010
     FM181800 25007KT P6SM OVC010
     FM182100 23006KT P6SM BKN025
     FM182300 22005KT P6SM SCT025
     FM190800 VRB03KT P6SM SCT140
     FM191100 VRB03KT P6SM BKN100=

USA.gov is the U.S. government's official web portal to all federal, state and local government web resources and services.